Orangeville, Canada
Current Conditions -  °F | °C
As of 10:00 AM on Wednesday 22 Oct 2014 (Local Time) from CYBN Reporting Station
Clear Clear  
Wind Chill: 36°   Ceiling: Unl
Heat Index: 41°   Visibility: 9mi
Dew Point: 36°   Wind: 7mph
Humidity: 81%   Direction: 340°NNW
Pressure: 30.3"   Gusts: NA
Location:  43.92°N, 80.09°W
Report Text: CYBN 221400Z AUTO 34006KT 320V020 9SM CLR 05/02 A3030 RMKSLP269
Loading
Personal Weather Stations






























Interactive Weather Map
Tropical Storm Tracking
New forecast layout! Learn more

10-Day Weather Forecast

Advertisements
Track Severe Weather on mobile